createdAt,value
2017-05-01T00:00:02.540Z,69.5
2017-05-01T00:15:02.435Z,70.37
2017-05-01T00:30:02.942Z,71.14
2017-05-01T00:45:02.362Z,72.23
2017-05-01T01:00:02.864Z,73.36
2017-05-01T01:15:02.109Z,73.63
2017-05-01T01:30:02.855Z,74.15
2017-05-01T01:45:02.015Z,74.94
2017-05-01T02:00:02.541Z,75.95
2017-05-01T02:15:02.504Z,76.45
2017-05-01T02:30:02.332Z,77.31
2017-05-01T02:45:02.763Z,77.7
2017-05-01T03:00:02.727Z,78.13
2017-05-01T03:15:02.523Z,79.39
2017-05-01T03:30:02.262Z,79.43
2017-05-01T03:45:02.703Z,79.72
2017-05-01T04:00:02.231Z,80.25
2017-05-01T04:15:02.358Z,80.75
2017-05-01T04:30:02.024Z,81.2
2017-05-01T04:45:02.691Z,81.55
2017-05-01T05:00:02.196Z,81.99
2017-05-01T05:15:02.135Z,81.79
2017-05-01T05:30:03.001Z,81.57
2017-05-01T05:45:02.462Z,81.54
2017-05-01T06:00:02.990Z,80.88
2017-05-01T06:15:02.605Z,80.04
2017-05-01T06:30:02.658Z,78.95
2017-05-01T06:45:02.092Z,77.75
2017-05-01T07:00:02.668Z,76.62
2017-05-01T07:15:02.802Z,75.42
2017-05-01T07:30:02.628Z,74.21
2017-05-01T07:45:02.104Z,72.48
2017-05-01T08:00:02.704Z,66.64
2017-05-01T08:15:02.293Z,64.32
2017-05-01T08:30:03.038Z,65.67
2017-05-01T08:45:02.503Z,66.05
2017-05-01T09:00:02.999Z,59.44
2017-05-01T09:15:02.502Z,56.64
2017-05-01T09:30:02.490Z,53.03
2017-05-01T09:45:02.927Z,53.51
2017-05-01T10:00:02.386Z,52.97
2017-05-01T10:15:02.211Z,52.93
2017-05-01T10:30:02.905Z,51.66
2017-05-01T10:45:02.369Z,52.02
2017-05-01T11:00:02.866Z,53.38
2017-05-01T11:15:02.434Z,55.73
2017-05-01T11:30:02.041Z,53.44
2017-05-01T11:45:02.573Z,52.48
2017-05-01T12:00:02.676Z,52.86
2017-05-01T12:15:02.820Z,52.11
2017-05-01T12:30:02.804Z,51.62
2017-05-01T12:45:02.266Z,52.44
2017-05-01T13:00:02.528Z,52.88
2017-05-01T13:15:02.536Z,52.96
2017-05-01T13:30:02.481Z,55.02
2017-05-01T13:45:02.272Z,54.37
2017-05-01T14:00:02.774Z,55.92
2017-05-01T14:15:02.495Z,54.27
2017-05-01T14:30:02.729Z,54.09
2017-05-01T14:45:02.678Z,53.89
2017-05-01T15:00:02.524Z,53
2017-05-01T15:15:02.916Z,52.3
2017-05-01T15:30:02.586Z,53.23
2017-05-01T15:45:02.572Z,52.49
2017-05-01T16:00:02.027Z,54.45
2017-05-01T16:15:02.781Z,54.38
2017-05-01T16:30:02.471Z,54.25
2017-05-01T16:45:02.913Z,55.9
2017-05-01T17:00:02.515Z,56.78
2017-05-01T17:15:02.915Z,57.41
2017-05-01T17:30:02.588Z,57.74
2017-05-01T17:45:02.247Z,57.79
2017-05-01T18:00:02.575Z,58.04
2017-05-01T18:15:02.836Z,58.15
2017-05-01T18:30:02.529Z,59.28
2017-05-01T18:45:02.968Z,59.41
2017-05-01T19:00:02.507Z,59.22
2017-05-01T19:15:02.251Z,60.31
2017-05-01T19:30:02.918Z,59.91
2017-05-01T19:45:02.577Z,60.21
2017-05-01T20:00:02.095Z,60.77
2017-05-01T20:15:02.303Z,60.9
2017-05-01T20:30:03.033Z,60.49
2017-05-01T20:45:02.876Z,59.65
2017-05-01T21:00:02.847Z,60.39
2017-05-01T21:15:02.185Z,61.13
2017-05-01T21:30:02.224Z,61.53
2017-05-01T21:45:02.746Z,62.77
2017-05-01T22:00:02.267Z,62.97
2017-05-01T22:15:02.636Z,63.12
2017-05-01T22:30:02.332Z,63.44
2017-05-01T22:45:02.726Z,63.92
2017-05-01T23:00:02.535Z,64.34
2017-05-01T23:15:02.915Z,65.16
2017-05-01T23:30:02.909Z,65.36
2017-05-01T23:45:02.157Z,65.77
